sensor_id;sensor_type;location;lat;lon;timestamp;P1;durP1;ratioP1;P2;durP2;ratioP2
20044;SDS011;10183;47.808;9.476;2023-12-28T00:00:00;30.70;;;27.80;;
20044;SDS011;10183;47.808;9.476;2023-12-28T00:02:46;32.17;;;29.23;;
20044;SDS011;10183;47.808;9.476;2023-12-28T00:05:32;31.53;;;28.57;;
20044;SDS011;10183;47.808;9.476;2023-12-28T00:08:18;31.03;;;28.23;;
20044;SDS011;10183;47.808;9.476;2023-12-28T00:11:04;30.37;;;27.47;;
20044;SDS011;10183;47.808;9.476;2023-12-28T00:13:50;31.00;;;27.80;;
20044;SDS011;10183;47.808;9.476;2023-12-28T00:16:36;29.70;;;26.90;;
20044;SDS011;10183;47.808;9.476;2023-12-28T00:19:22;29.90;;;26.97;;
20044;SDS011;10183;47.808;9.476;2023-12-28T00:22:08;30.73;;;27.97;;
20044;SDS011;10183;47.808;9.476;2023-12-28T00:24:54;30.23;;;27.33;;
20044;SDS011;10183;47.808;9.476;2023-12-28T00:27:40;31.47;;;28.33;;
20044;SDS011;10183;47.808;9.476;2023-12-28T00:30:26;30.37;;;27.50;;
20044;SDS011;10183;47.808;9.476;2023-12-28T00:33:12;29.93;;;27.03;;
20044;SDS011;10183;47.808;9.476;2023-12-28T00:35:58;30.70;;;27.80;;
20044;SDS011;10183;47.808;9.476;2023-12-28T00:38:44;30.00;;;26.80;;
20044;SDS011;10183;47.808;9.476;2023-12-28T00:41:30;31.47;;;28.43;;
20044;SDS011;10183;47.808;9.476;2023-12-28T00:44:16;30.07;;;27.17;;
20044;SDS011;10183;47.808;9.476;2023-12-28T00:47:01;28.43;;;25.73;;
20044;SDS011;10183;47.808;9.476;2023-12-28T00:49:48;30.87;;;27.80;;
20044;SDS011;10183;47.808;9.476;2023-12-28T00:52:33;31.30;;;28.20;;
20044;SDS011;10183;47.808;9.476;2023-12-28T00:55:20;30.73;;;27.63;;
20044;SDS011;10183;47.808;9.476;2023-12-28T00:58:06;31.10;;;28.17;;
20044;SDS011;10183;47.808;9.476;2023-12-28T01:00:52;31.43;;;28.20;;
20044;SDS011;10183;47.808;9.476;2023-12-28T01:03:41;31.10;;;28.10;;
20044;SDS011;10183;47.808;9.476;2023-12-28T01:06:27;29.87;;;27.17;;
20044;SDS011;10183;47.808;9.476;2023-12-28T01:09:14;30.80;;;27.70;;
20044;SDS011;10183;47.808;9.476;2023-12-28T01:12:00;30.07;;;26.97;;
20044;SDS011;10183;47.808;9.476;2023-12-28T01:14:46;29.60;;;26.63;;
20044;SDS011;10183;47.808;9.476;2023-12-28T01:17:32;30.17;;;27.37;;
20044;SDS011;10183;47.808;9.476;2023-12-28T01:20:18;31.90;;;28.57;;
20044;SDS011;10183;47.808;9.476;2023-12-28T01:23:04;30.53;;;27.53;;
20044;SDS011;10183;47.808;9.476;2023-12-28T01:25:50;31.57;;;28.37;;
20044;SDS011;10183;47.808;9.476;2023-12-28T01:28:36;33.37;;;27.17;;
20044;SDS011;10183;47.808;9.476;2023-12-28T01:31:23;32.13;;;27.50;;
20044;SDS011;10183;47.808;9.476;2023-12-28T01:34:09;31.00;;;27.80;;
20044;SDS011;10183;47.808;9.476;2023-12-28T01:36:55;30.47;;;27.37;;
20044;SDS011;10183;47.808;9.476;2023-12-28T01:39:41;31.27;;;28.13;;
20044;SDS011;10183;47.808;9.476;2023-12-28T01:42:27;31.47;;;28.47;;
20044;SDS011;10183;47.808;9.476;2023-12-28T01:45:15;31.20;;;28.10;;
20044;SDS011;10183;47.808;9.476;2023-12-28T01:48:01;31.83;;;28.73;;
20044;SDS011;10183;47.808;9.476;2023-12-28T01:50:49;30.80;;;27.77;;
20044;SDS011;10183;47.808;9.476;2023-12-28T01:53:35;31.37;;;27.97;;
20044;SDS011;10183;47.808;9.476;2023-12-28T01:56:22;33.33;;;29.60;;
20044;SDS011;10183;47.808;9.476;2023-12-28T01:59:08;31.17;;;27.87;;
20044;SDS011;10183;47.808;9.476;2023-12-28T02:01:54;30.60;;;27.47;;
20044;SDS011;10183;47.808;9.476;2023-12-28T02:04:41;30.37;;;27.07;;
20044;SDS011;10183;47.808;9.476;2023-12-28T02:07:27;30.03;;;26.73;;
20044;SDS011;10183;47.808;9.476;2023-12-28T02:10:14;29.23;;;26.33;;
20044;SDS011;10183;47.808;9.476;2023-12-28T02:13:00;30.07;;;27.17;;
20044;SDS011;10183;47.808;9.476;2023-12-28T02:15:46;30.87;;;27.70;;
20044;SDS011;10183;47.808;9.476;2023-12-28T02:18:43;31.20;;;28.00;;
20044;SDS011;10183;47.808;9.476;2023-12-28T02:21:32;30.50;;;27.37;;
20044;SDS011;10183;47.808;9.476;2023-12-28T02:24:18;31.50;;;28.20;;
20044;SDS011;10183;47.808;9.476;2023-12-28T02:27:05;30.50;;;27.30;;
20044;SDS011;10183;47.808;9.476;2023-12-28T02:29:51;31.60;;;28.40;;
20044;SDS011;10183;47.808;9.476;2023-12-28T02:33:42;30.43;;;27.47;;
20044;SDS011;10183;47.808;9.476;2023-12-28T02:35:59;31.23;;;28.03;;
20044;SDS011;10183;47.808;9.476;2023-12-28T02:38:49;31.97;;;28.53;;
20044;SDS011;10183;47.808;9.476;2023-12-28T02:41:38;31.97;;;28.57;;
20044;SDS011;10183;47.808;9.476;2023-12-28T02:44:24;32.00;;;28.60;;
20044;SDS011;10183;47.808;9.476;2023-12-28T02:47:10;32.23;;;28.93;;
20044;SDS011;10183;47.808;9.476;2023-12-28T02:49:57;32.30;;;28.97;;
20044;SDS011;10183;47.808;9.476;2023-12-28T02:52:44;33.67;;;30.13;;
20044;SDS011;10183;47.808;9.476;2023-12-28T02:55:30;32.43;;;28.93;;
20044;SDS011;10183;47.808;9.476;2023-12-28T02:58:18;32.93;;;29.33;;
20044;SDS011;10183;47.808;9.476;2023-12-28T03:01:05;32.60;;;29.20;;
20044;SDS011;10183;47.808;9.476;2023-12-28T03:03:51;32.93;;;29.33;;
20044;SDS011;10183;47.808;9.476;2023-12-28T03:06:37;32.83;;;29.23;;
20044;SDS011;10183;47.808;9.476;2023-12-28T03:09:25;31.73;;;28.47;;
20044;SDS011;10183;47.808;9.476;2023-12-28T03:12:11;33.67;;;30.17;;
20044;SDS011;10183;47.808;9.476;2023-12-28T03:14:57;32.37;;;29.13;;
20044;SDS011;10183;47.808;9.476;2023-12-28T03:17:43;32.87;;;29.57;;
20044;SDS011;10183;47.808;9.476;2023-12-28T03:20:29;32.93;;;29.63;;
20044;SDS011;10183;47.808;9.476;2023-12-28T03:23:15;31.30;;;28.10;;
20044;SDS011;10183;47.808;9.476;2023-12-28T03:26:02;31.10;;;27.90;;
20044;SDS011;10183;47.808;9.476;2023-12-28T03:28:48;31.40;;;28.10;;
20044;SDS011;10183;47.808;9.476;2023-12-28T03:31:38;31.67;;;28.30;;
20044;SDS011;10183;47.808;9.476;2023-12-28T03:34:27;31.73;;;28.53;;
20044;SDS011;10183;47.808;9.476;2023-12-28T03:37:14;32.23;;;28.93;;
20044;SDS011;10183;47.808;9.476;2023-12-28T03:40:00;30.70;;;27.50;;
20044;SDS011;10183;47.808;9.476;2023-12-28T03:42:47;32.50;;;29.20;;
20044;SDS011;10183;47.808;9.476;2023-12-28T03:45:33;31.57;;;28.37;;
20044;SDS011;10183;47.808;9.476;2023-12-28T03:48:19;30.70;;;27.20;;
20044;SDS011;10183;47.808;9.476;2023-12-28T03:51:05;29.23;;;26.03;;
20044;SDS011;10183;47.808;9.476;2023-12-28T03:53:51;30.10;;;27.00;;
20044;SDS011;10183;47.808;9.476;2023-12-28T03:56:37;29.80;;;26.83;;
20044;SDS011;10183;47.808;9.476;2023-12-28T03:59:25;29.80;;;26.80;;
20044;SDS011;10183;47.808;9.476;2023-12-28T04:02:11;29.97;;;26.87;;
20044;SDS011;10183;47.808;9.476;2023-12-28T04:04:57;28.80;;;26.00;;
20044;SDS011;10183;47.808;9.476;2023-12-28T04:07:44;29.23;;;26.20;;
20044;SDS011;10183;47.808;9.476;2023-12-28T04:10:31;30.00;;;26.90;;
20044;SDS011;10183;47.808;9.476;2023-12-28T04:13:18;30.70;;;27.40;;
20044;SDS011;10183;47.808;9.476;2023-12-28T04:16:05;30.20;;;27.30;;
20044;SDS011;10183;47.808;9.476;2023-12-28T04:18:51;30.57;;;27.67;;
20044;SDS011;10183;47.808;9.476;2023-12-28T04:21:37;30.17;;;27.27;;
20044;SDS011;10183;47.808;9.476;2023-12-28T04:24:23;30.10;;;27.10;;
20044;SDS011;10183;47.808;9.476;2023-12-28T04:27:09;29.87;;;26.87;;
20044;SDS011;10183;47.808;9.476;2023-12-28T04:29:55;29.87;;;26.67;;
20044;SDS011;10183;47.808;9.476;2023-12-28T04:32:41;29.27;;;26.53;;
20044;SDS011;10183;47.808;9.476;2023-12-28T04:35:28;28.73;;;25.27;;
20044;SDS011;10183;47.808;9.476;2023-12-28T04:38:15;30.83;;;27.73;;
20044;SDS011;10183;47.808;9.476;2023-12-28T04:41:01;31.87;;;28.83;;
20044;SDS011;10183;47.808;9.476;2023-12-28T04:43:47;30.97;;;27.90;;
20044;SDS011;10183;47.808;9.476;2023-12-28T04:46:37;29.37;;;26.57;;
20044;SDS011;10183;47.808;9.476;2023-12-28T04:49:26;30.67;;;27.80;;
20044;SDS011;10183;47.808;9.476;2023-12-28T04:52:12;30.73;;;27.53;;
20044;SDS011;10183;47.808;9.476;2023-12-28T04:54:58;28.73;;;25.93;;
20044;SDS011;10183;47.808;9.476;2023-12-28T04:57:44;30.70;;;27.40;;
20044;SDS011;10183;47.808;9.476;2023-12-28T05:00:30;29.97;;;26.77;;
20044;SDS011;10183;47.808;9.476;2023-12-28T05:03:16;29.50;;;26.60;;
20044;SDS011;10183;47.808;9.476;2023-12-28T05:06:03;28.00;;;25.30;;
20044;SDS011;10183;47.808;9.476;2023-12-28T05:08:49;29.27;;;26.20;;
20044;SDS011;10183;47.808;9.476;2023-12-28T05:11:35;28.13;;;25.63;;
20044;SDS011;10183;47.808;9.476;2023-12-28T05:14:21;30.80;;;28.07;;
20044;SDS011;10183;47.808;9.476;2023-12-28T05:17:06;29.90;;;26.80;;
20044;SDS011;10183;47.808;9.476;2023-12-28T05:19:52;29.63;;;26.83;;
20044;SDS011;10183;47.808;9.476;2023-12-28T05:22:38;27.97;;;25.00;;
20044;SDS011;10183;47.808;9.476;2023-12-28T05:25:24;28.60;;;25.83;;
20044;SDS011;10183;47.808;9.476;2023-12-28T05:28:10;29.80;;;26.83;;
20044;SDS011;10183;47.808;9.476;2023-12-28T05:30:56;29.03;;;25.13;;
20044;SDS011;10183;47.808;9.476;2023-12-28T05:33:44;27.00;;;24.47;;
20044;SDS011;10183;47.808;9.476;2023-12-28T05:36:30;28.27;;;25.47;;
20044;SDS011;10183;47.808;9.476;2023-12-28T05:39:16;32.73;;;29.63;;
20044;SDS011;10183;47.808;9.476;2023-12-28T05:42:02;31.40;;;28.50;;
20044;SDS011;10183;47.808;9.476;2023-12-28T05:44:48;39.50;;;35.53;;
20044;SDS011;10183;47.808;9.476;2023-12-28T05:47:34;32.17;;;29.07;;
20044;SDS011;10183;47.808;9.476;2023-12-28T05:50:19;33.60;;;30.43;;
20044;SDS011;10183;47.808;9.476;2023-12-28T05:53:05;30.30;;;27.23;;
20044;SDS011;10183;47.808;9.476;2023-12-28T05:55:51;28.93;;;26.10;;
20044;SDS011;10183;47.808;9.476;2023-12-28T05:58:38;30.10;;;27.37;;
20044;SDS011;10183;47.808;9.476;2023-12-28T06:01:24;31.20;;;28.10;;
20044;SDS011;10183;47.808;9.476;2023-12-28T06:04:10;31.17;;;28.47;;
20044;SDS011;10183;47.808;9.476;2023-12-28T06:06:56;30.53;;;27.70;;
20044;SDS011;10183;47.808;9.476;2023-12-28T06:09:42;30.23;;;27.27;;
20044;SDS011;10183;47.808;9.476;2023-12-28T06:12:28;30.03;;;27.27;;
20044;SDS011;10183;47.808;9.476;2023-12-28T06:15:14;32.23;;;29.33;;
20044;SDS011;10183;47.808;9.476;2023-12-28T06:18:00;28.87;;;26.17;;
20044;SDS011;10183;47.808;9.476;2023-12-28T06:20:47;28.43;;;25.37;;
20044;SDS011;10183;47.808;9.476;2023-12-28T06:23:33;30.00;;;27.00;;
20044;SDS011;10183;47.808;9.476;2023-12-28T06:26:19;29.67;;;27.07;;
20044;SDS011;10183;47.808;9.476;2023-12-28T06:29:05;24.37;;;22.07;;
20044;SDS011;10183;47.808;9.476;2023-12-28T06:31:51;24.90;;;22.30;;
20044;SDS011;10183;47.808;9.476;2023-12-28T06:34:36;26.73;;;24.23;;
20044;SDS011;10183;47.808;9.476;2023-12-28T06:37:22;28.77;;;26.33;;
20044;SDS011;10183;47.808;9.476;2023-12-28T06:40:08;25.77;;;23.30;;
20044;SDS011;10183;47.808;9.476;2023-12-28T06:42:55;26.30;;;23.87;;
20044;SDS011;10183;47.808;9.476;2023-12-28T06:45:41;25.90;;;23.67;;
20044;SDS011;10183;47.808;9.476;2023-12-28T06:48:27;25.37;;;23.00;;
20044;SDS011;10183;47.808;9.476;2023-12-28T06:51:16;42.07;;;39.10;;
20044;SDS011;10183;47.808;9.476;2023-12-28T06:54:03;43.10;;;40.20;;
20044;SDS011;10183;47.808;9.476;2023-12-28T06:56:49;43.30;;;40.40;;
20044;SDS011;10183;47.808;9.476;2023-12-28T06:59:36;36.50;;;33.70;;
20044;SDS011;10183;47.808;9.476;2023-12-28T07:02:22;33.53;;;30.53;;
20044;SDS011;10183;47.808;9.476;2023-12-28T07:05:09;36.23;;;33.23;;
20044;SDS011;10183;47.808;9.476;2023-12-28T07:07:55;36.70;;;33.60;;
20044;SDS011;10183;47.808;9.476;2023-12-28T07:10:42;35.37;;;32.30;;
20044;SDS011;10183;47.808;9.476;2023-12-28T07:13:28;31.33;;;28.73;;
20044;SDS011;10183;47.808;9.476;2023-12-28T07:16:14;29.70;;;27.20;;
20044;SDS011;10183;47.808;9.476;2023-12-28T07:19:01;28.77;;;25.87;;
20044;SDS011;10183;47.808;9.476;2023-12-28T07:21:47;27.50;;;24.77;;
20044;SDS011;10183;47.808;9.476;2023-12-28T07:24:32;25.77;;;22.63;;
20044;SDS011;10183;47.808;9.476;2023-12-28T07:27:18;26.63;;;23.73;;
20044;SDS011;10183;47.808;9.476;2023-12-28T07:30:04;24.93;;;22.37;;
20044;SDS011;10183;47.808;9.476;2023-12-28T07:32:52;25.97;;;23.17;;
20044;SDS011;10183;47.808;9.476;2023-12-28T07:35:38;27.43;;;24.53;;
20044;SDS011;10183;47.808;9.476;2023-12-28T07:38:24;27.00;;;24.10;;
20044;SDS011;10183;47.808;9.476;2023-12-28T07:41:10;26.37;;;22.57;;
20044;SDS011;10183;47.808;9.476;2023-12-28T07:43:56;28.53;;;25.73;;
20044;SDS011;10183;47.808;9.476;2023-12-28T07:46:43;27.10;;;22.43;;
20044;SDS011;10183;47.808;9.476;2023-12-28T07:49:30;27.13;;;21.80;;
20044;SDS011;10183;47.808;9.476;2023-12-28T07:52:16;29.73;;;23.07;;
20044;SDS011;10183;47.808;9.476;2023-12-28T07:55:02;28.87;;;25.93;;
20044;SDS011;10183;47.808;9.476;2023-12-28T07:57:49;27.13;;;24.33;;
20044;SDS011;10183;47.808;9.476;2023-12-28T08:00:35;27.87;;;24.97;;
20044;SDS011;10183;47.808;9.476;2023-12-28T08:03:21;26.30;;;23.60;;
20044;SDS011;10183;47.808;9.476;2023-12-28T08:06:07;28.60;;;25.27;;
20044;SDS011;10183;47.808;9.476;2023-12-28T08:08:53;27.30;;;24.37;;
20044;SDS011;10183;47.808;9.476;2023-12-28T08:11:39;28.83;;;25.70;;
20044;SDS011;10183;47.808;9.476;2023-12-28T08:14:25;30.50;;;27.30;;
20044;SDS011;10183;47.808;9.476;2023-12-28T08:17:11;29.63;;;26.43;;
20044;SDS011;10183;47.808;9.476;2023-12-28T08:19:57;31.07;;;27.87;;
20044;SDS011;10183;47.808;9.476;2023-12-28T08:22:42;32.00;;;28.57;;
20044;SDS011;10183;47.808;9.476;2023-12-28T08:25:28;35.20;;;31.47;;
20044;SDS011;10183;47.808;9.476;2023-12-28T08:28:15;41.37;;;37.17;;
20044;SDS011;10183;47.808;9.476;2023-12-28T08:31:02;44.93;;;38.53;;
20044;SDS011;10183;47.808;9.476;2023-12-28T08:33:48;46.40;;;41.40;;
20044;SDS011;10183;47.808;9.476;2023-12-28T08:36:34;36.00;;;27.77;;
20044;SDS011;10183;47.808;9.476;2023-12-28T08:39:20;34.47;;;27.70;;
20044;SDS011;10183;47.808;9.476;2023-12-28T08:42:06;32.23;;;25.97;;
20044;SDS011;10183;47.808;9.476;2023-12-28T08:44:52;31.83;;;26.23;;
20044;SDS011;10183;47.808;9.476;2023-12-28T08:47:38;30.80;;;27.40;;
20044;SDS011;10183;47.808;9.476;2023-12-28T08:50:24;45.13;;;40.73;;
20044;SDS011;10183;47.808;9.476;2023-12-28T08:53:10;46.17;;;41.57;;
20044;SDS011;10183;47.808;9.476;2023-12-28T08:55:56;44.33;;;40.03;;
20044;SDS011;10183;47.808;9.476;2023-12-28T08:58:42;38.73;;;34.50;;
20044;SDS011;10183;47.808;9.476;2023-12-28T09:01:28;43.37;;;39.00;;
20044;SDS011;10183;47.808;9.476;2023-12-28T09:04:14;39.70;;;35.60;;
20044;SDS011;10183;47.808;9.476;2023-12-28T09:07:00;40.87;;;36.47;;
20044;SDS011;10183;47.808;9.476;2023-12-28T09:09:47;38.47;;;34.47;;
20044;SDS011;10183;47.808;9.476;2023-12-28T09:12:33;37.23;;;33.37;;
20044;SDS011;10183;47.808;9.476;2023-12-28T09:15:19;43.53;;;39.33;;
20044;SDS011;10183;47.808;9.476;2023-12-28T09:18:05;42.70;;;38.70;;
20044;SDS011;10183;47.808;9.476;2023-12-28T09:20:51;28.77;;;25.70;;
20044;SDS011;10183;47.808;9.476;2023-12-28T09:23:37;30.13;;;27.13;;
20044;SDS011;10183;47.808;9.476;2023-12-28T09:26:24;30.27;;;27.17;;
20044;SDS011;10183;47.808;9.476;2023-12-28T09:29:09;31.63;;;28.60;;
20044;SDS011;10183;47.808;9.476;2023-12-28T09:31:55;30.93;;;27.83;;
20044;SDS011;10183;47.808;9.476;2023-12-28T09:34:41;29.03;;;26.03;;
20044;SDS011;10183;47.808;9.476;2023-12-28T09:37:27;29.77;;;25.93;;
20044;SDS011;10183;47.808;9.476;2023-12-28T09:40:13;28.97;;;26.07;;
20044;SDS011;10183;47.808;9.476;2023-12-28T09:43:07;30.37;;;27.27;;
20044;SDS011;10183;47.808;9.476;2023-12-28T09:45:55;29.70;;;26.83;;
20044;SDS011;10183;47.808;9.476;2023-12-28T09:48:41;30.23;;;27.40;;
20044;SDS011;10183;47.808;9.476;2023-12-28T09:51:27;27.93;;;25.00;;
20044;SDS011;10183;47.808;9.476;2023-12-28T09:54:13;28.73;;;25.73;;
20044;SDS011;10183;47.808;9.476;2023-12-28T09:56:59;30.80;;;27.83;;
20044;SDS011;10183;47.808;9.476;2023-12-28T09:59:46;29.43;;;25.17;;
20044;SDS011;10183;47.808;9.476;2023-12-28T10:02:32;29.10;;;26.00;;
20044;SDS011;10183;47.808;9.476;2023-12-28T10:05:19;27.37;;;24.60;;
20044;SDS011;10183;47.808;9.476;2023-12-28T10:08:05;29.97;;;27.00;;
20044;SDS011;10183;47.808;9.476;2023-12-28T10:10:51;30.20;;;27.10;;
20044;SDS011;10183;47.808;9.476;2023-12-28T10:13:39;29.53;;;26.53;;
20044;SDS011;10183;47.808;9.476;2023-12-28T10:16:29;30.17;;;27.27;;
20044;SDS011;10183;47.808;9.476;2023-12-28T10:19:14;30.87;;;27.63;;
20044;SDS011;10183;47.808;9.476;2023-12-28T10:22:00;30.53;;;27.53;;
20044;SDS011;10183;47.808;9.476;2023-12-28T10:24:47;29.60;;;26.60;;
20044;SDS011;10183;47.808;9.476;2023-12-28T10:27:36;29.17;;;26.17;;
20044;SDS011;10183;47.808;9.476;2023-12-28T10:30:24;37.57;;;33.67;;
20044;SDS011;10183;47.808;9.476;2023-12-28T10:33:10;36.60;;;33.00;;
20044;SDS011;10183;47.808;9.476;2023-12-28T10:35:56;28.07;;;25.20;;
20044;SDS011;10183;47.808;9.476;2023-12-28T10:38:44;36.33;;;32.73;;
20044;SDS011;10183;47.808;9.476;2023-12-28T10:41:33;34.00;;;30.60;;
20044;SDS011;10183;47.808;9.476;2023-12-28T10:44:21;27.53;;;24.67;;
20044;SDS011;10183;47.808;9.476;2023-12-28T10:47:15;29.37;;;26.17;;
20044;SDS011;10183;47.808;9.476;2023-12-28T10:50:03;28.83;;;26.13;;
20044;SDS011;10183;47.808;9.476;2023-12-28T10:52:51;28.47;;;25.57;;
20044;SDS011;10183;47.808;9.476;2023-12-28T11:01:41;40.17;;;36.37;;
20044;SDS011;10183;47.808;9.476;2023-12-28T11:04:37;37.17;;;33.57;;
20044;SDS011;10183;47.808;9.476;2023-12-28T11:07:32;39.27;;;35.50;;
20044;SDS011;10183;47.808;9.476;2023-12-28T11:10:18;44.53;;;40.37;;
20044;SDS011;10183;47.808;9.476;2023-12-28T11:13:06;43.20;;;38.80;;
20044;SDS011;10183;47.808;9.476;2023-12-28T11:15:55;41.23;;;37.23;;
20044;SDS011;10183;47.808;9.476;2023-12-28T11:18:44;42.93;;;38.67;;
20044;SDS011;10183;47.808;9.476;2023-12-28T11:21:30;41.97;;;37.83;;
20044;SDS011;10183;47.808;9.476;2023-12-28T11:24:18;42.17;;;38.17;;
20044;SDS011;10183;47.808;9.476;2023-12-28T11:27:04;45.20;;;41.00;;
20044;SDS011;10183;47.808;9.476;2023-12-28T11:29:51;47.73;;;43.23;;
20044;SDS011;10183;47.808;9.476;2023-12-28T11:32:38;40.63;;;36.73;;
20044;SDS011;10183;47.808;9.476;2023-12-28T11:35:33;39.87;;;36.07;;
20044;SDS011;10183;47.808;9.476;2023-12-28T11:38:21;42.80;;;38.70;;
20044;SDS011;10183;47.808;9.476;2023-12-28T11:41:09;44.20;;;40.10;;
20044;SDS011;10183;47.808;9.476;2023-12-28T11:43:55;45.17;;;40.77;;
20044;SDS011;10183;47.808;9.476;2023-12-28T11:46:42;37.77;;;34.07;;
20044;SDS011;10183;47.808;9.476;2023-12-28T11:49:28;37.73;;;34.33;;
20044;SDS011;10183;47.808;9.476;2023-12-28T11:52:25;41.17;;;37.27;;
20044;SDS011;10183;47.808;9.476;2023-12-28T11:55:12;44.03;;;39.77;;
20044;SDS011;10183;47.808;9.476;2023-12-28T11:58:07;42.67;;;38.63;;
20044;SDS011;10183;47.808;9.476;2023-12-28T12:00:52;41.93;;;37.80;;
20044;SDS011;10183;47.808;9.476;2023-12-28T12:03:38;38.53;;;34.93;;
20044;SDS011;10183;47.808;9.476;2023-12-28T12:06:25;42.27;;;38.07;;
20044;SDS011;10183;47.808;9.476;2023-12-28T12:09:11;31.57;;;28.17;;
20044;SDS011;10183;47.808;9.476;2023-12-28T12:11:57;32.03;;;28.83;;
20044;SDS011;10183;47.808;9.476;2023-12-28T12:14:43;29.90;;;26.80;;
20044;SDS011;10183;47.808;9.476;2023-12-28T12:17:29;30.30;;;27.10;;
20044;SDS011;10183;47.808;9.476;2023-12-28T12:20:16;29.23;;;25.97;;
20044;SDS011;10183;47.808;9.476;2023-12-28T12:23:02;33.50;;;30.30;;
20044;SDS011;10183;47.808;9.476;2023-12-28T12:25:48;31.53;;;28.13;;
20044;SDS011;10183;47.808;9.476;2023-12-28T12:28:34;32.97;;;29.57;;
20044;SDS011;10183;47.808;9.476;2023-12-28T12:31:20;30.87;;;27.30;;
20044;SDS011;10183;47.808;9.476;2023-12-28T12:34:10;32.20;;;28.73;;
20044;SDS011;10183;47.808;9.476;2023-12-28T12:36:56;34.10;;;29.40;;
20044;SDS011;10183;47.808;9.476;2023-12-28T12:39:44;32.63;;;29.20;;
20044;SDS011;10183;47.808;9.476;2023-12-28T12:42:30;29.70;;;26.70;;
20044;SDS011;10183;47.808;9.476;2023-12-28T12:45:17;29.53;;;26.63;;
20044;SDS011;10183;47.808;9.476;2023-12-28T12:48:04;30.60;;;27.50;;
20044;SDS011;10183;47.808;9.476;2023-12-28T12:50:50;31.57;;;28.50;;
20044;SDS011;10183;47.808;9.476;2023-12-28T12:53:36;30.70;;;27.40;;
20044;SDS011;10183;47.808;9.476;2023-12-28T12:56:22;30.30;;;27.20;;
20044;SDS011;10183;47.808;9.476;2023-12-28T12:59:08;32.50;;;29.27;;
20044;SDS011;10183;47.808;9.476;2023-12-28T13:02:01;29.83;;;26.63;;
20044;SDS011;10183;47.808;9.476;2023-12-28T13:04:47;30.27;;;27.27;;
20044;SDS011;10183;47.808;9.476;2023-12-28T13:07:33;28.03;;;25.10;;
20044;SDS011;10183;47.808;9.476;2023-12-28T13:10:19;29.63;;;25.80;;
20044;SDS011;10183;47.808;9.476;2023-12-28T13:13:08;28.90;;;26.13;;
20044;SDS011;10183;47.808;9.476;2023-12-28T13:15:54;29.30;;;26.40;;
20044;SDS011;10183;47.808;9.476;2023-12-28T13:18:40;29.43;;;26.37;;
20044;SDS011;10183;47.808;9.476;2023-12-28T13:21:26;29.67;;;26.87;;
20044;SDS011;10183;47.808;9.476;2023-12-28T13:24:12;28.57;;;25.57;;
20044;SDS011;10183;47.808;9.476;2023-12-28T13:26:58;28.70;;;25.80;;
20044;SDS011;10183;47.808;9.476;2023-12-28T13:29:44;29.33;;;26.40;;
20044;SDS011;10183;47.808;9.476;2023-12-28T13:32:30;28.30;;;25.30;;
20044;SDS011;10183;47.808;9.476;2023-12-28T13:35:16;30.63;;;27.37;;
20044;SDS011;10183;47.808;9.476;2023-12-28T13:38:03;30.13;;;27.03;;
20044;SDS011;10183;47.808;9.476;2023-12-28T13:40:49;30.57;;;27.40;;
20044;SDS011;10183;47.808;9.476;2023-12-28T13:43:35;27.57;;;24.80;;
20044;SDS011;10183;47.808;9.476;2023-12-28T13:46:21;29.00;;;26.10;;
20044;SDS011;10183;47.808;9.476;2023-12-28T13:49:08;29.70;;;26.70;;
20044;SDS011;10183;47.808;9.476;2023-12-28T13:51:54;30.57;;;27.40;;
20044;SDS011;10183;47.808;9.476;2023-12-28T13:54:40;32.00;;;29.00;;
20044;SDS011;10183;47.808;9.476;2023-12-28T13:57:27;30.80;;;27.50;;
20044;SDS011;10183;47.808;9.476;2023-12-28T14:00:13;30.63;;;27.43;;
20044;SDS011;10183;47.808;9.476;2023-12-28T14:02:59;30.83;;;27.87;;
20044;SDS011;10183;47.808;9.476;2023-12-28T14:05:45;29.87;;;25.67;;
20044;SDS011;10183;47.808;9.476;2023-12-28T14:08:31;30.30;;;27.10;;
20044;SDS011;10183;47.808;9.476;2023-12-28T14:11:17;31.77;;;28.73;;
20044;SDS011;10183;47.808;9.476;2023-12-28T14:14:03;33.03;;;29.67;;
20044;SDS011;10183;47.808;9.476;2023-12-28T14:16:49;32.13;;;28.97;;
20044;SDS011;10183;47.808;9.476;2023-12-28T14:19:35;31.80;;;28.57;;
20044;SDS011;10183;47.808;9.476;2023-12-28T14:22:21;31.33;;;28.03;;
20044;SDS011;10183;47.808;9.476;2023-12-28T14:25:07;29.20;;;26.17;;
20044;SDS011;10183;47.808;9.476;2023-12-28T14:27:56;28.53;;;25.57;;
20044;SDS011;10183;47.808;9.476;2023-12-28T14:30:43;30.73;;;27.43;;
20044;SDS011;10183;47.808;9.476;2023-12-28T14:33:30;31.77;;;28.37;;
20044;SDS011;10183;47.808;9.476;2023-12-28T14:39:12;31.10;;;27.77;;
20044;SDS011;10183;47.808;9.476;2023-12-28T14:41:59;32.07;;;28.50;;
20044;SDS011;10183;47.808;9.476;2023-12-28T14:44:48;32.43;;;28.07;;
20044;SDS011;10183;47.808;9.476;2023-12-28T14:47:36;33.17;;;28.63;;
20044;SDS011;10183;47.808;9.476;2023-12-28T14:50:22;35.20;;;31.67;;
20044;SDS011;10183;47.808;9.476;2023-12-28T14:53:08;35.40;;;31.60;;
20044;SDS011;10183;47.808;9.476;2023-12-28T14:55:54;33.30;;;29.37;;
20044;SDS011;10183;47.808;9.476;2023-12-28T14:58:41;32.57;;;29.17;;
20044;SDS011;10183;47.808;9.476;2023-12-28T15:01:33;32.60;;;29.23;;
20044;SDS011;10183;47.808;9.476;2023-12-28T15:04:19;34.13;;;30.47;;
20044;SDS011;10183;47.808;9.476;2023-12-28T15:07:05;34.77;;;31.37;;
20044;SDS011;10183;47.808;9.476;2023-12-28T15:09:51;36.00;;;32.40;;
20044;SDS011;10183;47.808;9.476;2023-12-28T15:12:41;37.53;;;34.03;;
20044;SDS011;10183;47.808;9.476;2023-12-28T15:15:27;37.07;;;33.37;;
20044;SDS011;10183;47.808;9.476;2023-12-28T15:18:14;35.90;;;32.80;;
20044;SDS011;10183;47.808;9.476;2023-12-28T15:21:02;37.00;;;33.90;;
20044;SDS011;10183;47.808;9.476;2023-12-28T15:23:49;39.10;;;36.00;;
20044;SDS011;10183;47.808;9.476;2023-12-28T15:26:35;40.10;;;36.90;;
20044;SDS011;10183;47.808;9.476;2023-12-28T15:29:21;42.10;;;38.67;;
20044;SDS011;10183;47.808;9.476;2023-12-28T15:32:07;38.57;;;34.77;;
20044;SDS011;10183;47.808;9.476;2023-12-28T15:34:54;69.37;;;53.57;;
20044;SDS011;10183;47.808;9.476;2023-12-28T15:37:40;42.67;;;39.07;;
20044;SDS011;10183;47.808;9.476;2023-12-28T15:40:26;28.63;;;25.97;;
20044;SDS011;10183;47.808;9.476;2023-12-28T15:43:12;29.80;;;26.90;;
20044;SDS011;10183;47.808;9.476;2023-12-28T15:45:58;31.30;;;28.27;;
20044;SDS011;10183;47.808;9.476;2023-12-28T15:48:44;32.23;;;28.73;;
20044;SDS011;10183;47.808;9.476;2023-12-28T15:51:30;32.90;;;29.63;;
20044;SDS011;10183;47.808;9.476;2023-12-28T15:54:16;34.50;;;31.27;;
20044;SDS011;10183;47.808;9.476;2023-12-28T15:57:02;36.03;;;32.57;;
20044;SDS011;10183;47.808;9.476;2023-12-28T15:59:49;34.33;;;31.07;;
20044;SDS011;10183;47.808;9.476;2023-12-28T16:02:35;33.33;;;30.03;;
20044;SDS011;10183;47.808;9.476;2023-12-28T16:05:21;34.57;;;31.00;;
20044;SDS011;10183;47.808;9.476;2023-12-28T16:08:07;32.27;;;29.07;;
20044;SDS011;10183;47.808;9.476;2023-12-28T16:10:53;33.40;;;30.33;;
20044;SDS011;10183;47.808;9.476;2023-12-28T16:13:39;29.67;;;26.37;;
20044;SDS011;10183;47.808;9.476;2023-12-28T16:16:28;28.83;;;26.17;;
20044;SDS011;10183;47.808;9.476;2023-12-28T16:19:14;30.40;;;27.23;;
20044;SDS011;10183;47.808;9.476;2023-12-28T16:22:01;28.80;;;26.00;;